createdAt,value
2024-02-04T00:00:03.083Z,95.49
2024-02-04T00:01:02.924Z,95.49
2024-02-04T00:02:03.065Z,95.49
2024-02-04T00:03:03.795Z,95.49
2024-02-04T00:04:03.843Z,95.49
2024-02-04T00:05:07.225Z,95.49
2024-02-04T00:06:02.793Z,95.49
2024-02-04T00:07:03.787Z,95.49
2024-02-04T00:08:02.751Z,95.49
2024-02-04T00:09:03.294Z,95.49
2024-02-04T00:10:02.832Z,95.49
2024-02-04T00:11:02.734Z,95.49
2024-02-04T00:12:02.723Z,95.49
2024-02-04T00:13:02.904Z,95.49
2024-02-04T00:14:02.706Z,95.49
2024-02-04T00:15:03.264Z,95.49
2024-02-04T00:16:02.753Z,95.59
2024-02-04T00:17:02.654Z,95.59
2024-02-04T00:18:02.705Z,95.59
2024-02-04T00:19:02.657Z,95.59
2024-02-04T00:20:02.620Z,95.59
2024-02-04T00:21:02.610Z,95.59
2024-02-04T00:22:02.662Z,95.59
2024-02-04T00:23:02.636Z,95.59
2024-02-04T00:24:02.596Z,95.59
2024-02-04T00:25:02.800Z,95.59
2024-02-04T00:26:02.581Z,95.59
2024-02-04T00:27:02.572Z,95.59
2024-02-04T00:28:02.587Z,95.59
2024-02-04T00:29:02.546Z,95.59
2024-02-04T00:30:02.534Z,95.59
2024-02-04T00:31:02.557Z,95.59
2024-02-04T00:32:02.784Z,95.59
2024-02-04T00:33:03.339Z,95.59
2024-02-04T00:34:02.639Z,95.59
2024-02-04T00:35:02.506Z,95.49
2024-02-04T00:36:02.519Z,95.49
2024-02-04T00:37:04.442Z,95.49
2024-02-04T00:38:02.435Z,95.49
2024-02-04T00:39:02.710Z,95.49
2024-02-04T00:40:02.668Z,95.49
2024-02-04T00:41:02.410Z,95.49
2024-02-04T00:42:02.685Z,95.49
2024-02-04T00:43:02.594Z,95.49
2024-02-04T00:44:02.368Z,95.49
2024-02-04T00:45:02.406Z,95.49
2024-02-04T00:46:02.479Z,95.49
2024-02-04T00:47:02.356Z,95.39
2024-02-04T00:48:02.462Z,95.28
2024-02-04T00:49:02.547Z,95.28
2024-02-04T00:50:02.399Z,95.28
2024-02-04T00:51:02.984Z,95.18
2024-02-04T00:52:02.363Z,95.18
2024-02-04T00:53:02.480Z,95.07
2024-02-04T00:54:02.289Z,95.07
2024-02-04T00:55:02.505Z,94.98
2024-02-04T00:56:02.322Z,94.98
2024-02-04T00:57:02.241Z,94.98
2024-02-04T00:58:03.966Z,94.98
2024-02-04T00:59:02.245Z,94.87
2024-02-04T01:00:02.277Z,94.87
2024-02-04T01:01:02.551Z,94.87
2024-02-04T01:02:02.345Z,94.87
2024-02-04T01:03:02.410Z,94.87
2024-02-04T01:04:02.264Z,94.87
2024-02-04T01:05:02.319Z,94.87
2024-02-04T01:06:02.205Z,94.87
2024-02-04T01:07:02.430Z,94.87
2024-02-04T01:08:02.129Z,94.87
2024-02-04T01:09:02.119Z,94.87
2024-02-04T01:10:03.864Z,94.77
2024-02-04T01:11:02.388Z,94.77
2024-02-04T01:12:02.113Z,94.87
2024-02-04T01:13:02.165Z,94.87
2024-02-04T01:14:02.076Z,94.98
2024-02-04T01:15:02.377Z,94.98
2024-02-04T01:16:02.200Z,94.98
2024-02-04T01:17:02.051Z,94.98
2024-02-04T01:18:02.108Z,94.98
2024-02-04T01:19:02.175Z,94.98
2024-02-04T01:20:02.256Z,94.98
2024-02-04T01:21:02.105Z,94.87
2024-02-04T01:22:02.316Z,94.98
2024-02-04T01:23:02.029Z,94.98
2024-02-04T01:24:02.025Z,94.98
2024-02-04T01:25:02.134Z,94.98
2024-02-04T01:26:02.209Z,94.98
2024-02-04T01:27:01.933Z,94.98
2024-02-04T01:28:02.112Z,94.98
2024-02-04T01:29:01.914Z,94.98
2024-02-04T01:30:02.033Z,94.98
2024-02-04T01:31:02.031Z,94.98
2024-02-04T01:32:01.917Z,94.98
2024-02-04T01:33:01.955Z,94.87
2024-02-04T01:34:02.115Z,94.87
2024-02-04T01:35:01.940Z,94.98
2024-02-04T01:36:01.848Z,94.98
2024-02-04T01:37:01.897Z,95.07
2024-02-04T01:38:01.886Z,95.07
2024-02-04T01:39:02.989Z,95.07
2024-02-04T01:40:01.923Z,95.07
2024-02-04T01:41:01.838Z,95.07
2024-02-04T01:42:01.800Z,95.07
2024-02-04T01:43:02.981Z,95.07
2024-02-04T01:44:02.007Z,95.07
2024-02-04T01:45:01.784Z,95.18
2024-02-04T01:46:03.381Z,95.07
2024-02-04T01:47:01.737Z,95.18
2024-02-04T01:48:01.788Z,95.18
2024-02-04T01:49:01.892Z,95.18
2024-02-04T01:50:01.825Z,95.18
2024-02-04T01:51:01.684Z,95.18
2024-02-04T01:52:01.835Z,95.28
2024-02-04T01:53:01.667Z,95.28
2024-02-04T01:54:01.695Z,95.39
2024-02-04T01:55:01.741Z,95.59
2024-02-04T01:56:01.643Z,95.79
2024-02-04T01:57:01.635Z,95.90
2024-02-04T01:58:01.775Z,96.10
2024-02-04T01:59:01.612Z,96.20
2024-02-04T02:00:01.612Z,96.31
2024-02-04T02:01:01.866Z,96.51
2024-02-04T02:02:01.584Z,96.62
2024-02-04T02:03:01.580Z,96.62
2024-02-04T02:04:01.687Z,96.51
2024-02-04T02:05:01.796Z,96.51
2024-02-04T02:06:01.590Z,96.41
2024-02-04T02:07:01.720Z,96.31
2024-02-04T02:08:01.772Z,96.31
2024-02-04T02:09:01.545Z,96.31
2024-02-04T02:10:01.659Z,96.20
2024-02-04T02:11:01.513Z,96.20
2024-02-04T02:12:01.477Z,96.10
2024-02-04T02:13:01.634Z,96.10
2024-02-04T02:14:01.469Z,96.20
2024-02-04T02:15:01.466Z,96.51
2024-02-04T02:16:01.576Z,96.82
2024-02-04T02:17:01.441Z,97.13
2024-02-04T02:18:01.605Z,97.33
2024-02-04T02:19:01.683Z,97.85
2024-02-04T02:20:01.417Z,98.20
2024-02-04T02:21:01.385Z,98.61
2024-02-04T02:22:01.409Z,99.02
2024-02-04T02:23:01.607Z,99.43
2024-02-04T02:24:01.359Z,99.95
2024-02-04T02:25:01.381Z,99.99
2024-02-04T02:26:01.320Z,99.99
2024-02-04T02:27:01.331Z,99.99
2024-02-04T02:28:01.511Z,99.99
2024-02-04T02:29:01.303Z,99.99
2024-02-04T02:30:01.297Z,99.99
2024-02-04T02:31:02.858Z,99.99
2024-02-04T02:32:01.259Z,99.99
2024-02-04T02:33:01.382Z,99.99
2024-02-04T02:34:01.374Z,99.99
2024-02-04T02:35:01.317Z,99.99
2024-02-04T02:36:01.241Z,99.99
2024-02-04T02:37:01.399Z,99.99
2024-02-04T02:38:01.209Z,99.99
2024-02-04T02:39:01.768Z,99.99
2024-02-04T02:40:01.232Z,99.99
2024-02-04T02:41:01.160Z,99.99
2024-02-04T02:42:01.156Z,99.99
2024-02-04T02:43:01.215Z,99.99
2024-02-04T02:44:01.132Z,99.99
2024-02-04T02:45:01.147Z,99.99
2024-02-04T02:46:01.205Z,99.99
2024-02-04T02:47:01.120Z,99.99
2024-02-04T02:48:01.231Z,99.99
2024-02-04T02:49:01.180Z,99.99
2024-02-04T02:50:01.916Z,99.99
2024-02-04T02:51:01.089Z,99.99
2024-02-04T02:52:01.208Z,99.99
2024-02-04T02:53:01.033Z,99.99
2024-02-04T02:54:01.067Z,99.99
2024-02-04T02:55:01.138Z,99.99
2024-02-04T02:56:01.049Z,99.99
2024-02-04T02:57:01.018Z,99.99
2024-02-04T02:58:01.259Z,99.99
2024-02-04T02:59:01.048Z,99.99
2024-02-04T03:00:00.978Z,99.99
2024-02-04T03:01:01.418Z,99.99
2024-02-04T03:02:01.781Z,99.99
2024-02-04T03:03:01.786Z,99.99
2024-02-04T03:04:01.044Z,99.99
2024-02-04T03:05:01.811Z,99.99
2024-02-04T03:06:01.108Z,99.99
2024-02-04T03:07:01.038Z,99.99
2024-02-04T03:08:00.931Z,99.99
2024-02-04T03:09:00.902Z,99.99
2024-02-04T03:10:00.980Z,99.99
2024-02-04T03:11:00.857Z,99.99
2024-02-04T03:12:01.585Z,99.99
2024-02-04T03:13:00.954Z,99.99
2024-02-04T03:14:01.767Z,99.99
2024-02-04T03:15:00.808Z,99.99
2024-02-04T03:16:00.932Z,99.99
2024-02-04T03:17:00.799Z,99.99
2024-02-04T03:18:00.858Z,99.99
2024-02-04T03:19:00.943Z,99.99
2024-02-04T03:20:01.029Z,99.99
2024-02-04T03:21:00.767Z,99.99
2024-02-04T03:22:00.814Z,99.99
2024-02-04T03:23:00.771Z,99.99
2024-02-04T03:24:00.769Z,99.99
2024-02-04T03:25:00.837Z,99.99
2024-02-04T03:26:00.748Z,99.99
2024-02-04T03:27:00.713Z,99.99
2024-02-04T03:28:00.858Z,99.99
2024-02-04T03:29:00.691Z,99.99
2024-02-04T03:30:00.714Z,99.99
2024-02-04T03:31:00.693Z,99.99
2024-02-04T03:32:00.663Z,99.99
2024-02-04T03:33:00.793Z,99.99
2024-02-04T03:34:00.770Z,99.99
2024-02-04T03:35:00.718Z,99.99
2024-02-04T03:36:00.661Z,99.99
2024-02-04T03:37:00.648Z,99.99
2024-02-04T03:38:00.587Z,99.99
2024-02-04T03:39:00.581Z,99.99
2024-02-04T03:40:00.776Z,99.99
2024-02-04T03:41:00.552Z,99.99
2024-02-04T03:42:00.550Z,99.99
2024-02-04T03:43:00.574Z,99.99
2024-02-04T03:44:00.558Z,99.99
2024-02-04T03:45:00.515Z,99.99
2024-02-04T03:46:00.580Z,99.99
2024-02-04T03:47:00.512Z,99.99
2024-02-04T03:48:00.553Z,99.99
2024-02-04T03:49:00.568Z,99.99
2024-02-04T03:50:00.512Z,99.99
2024-02-04T03:51:00.487Z,99.99
2024-02-04T03:52:00.677Z,99.99
2024-02-04T03:53:00.425Z,99.99
2024-02-04T03:54:00.471Z,99.99
2024-02-04T03:55:00.535Z,99.99
2024-02-04T03:56:00.475Z,99.99
2024-02-04T03:57:01.818Z,99.99
2024-02-04T03:58:00.489Z,99.99
2024-02-04T03:59:00.610Z,99.99
2024-02-04T04:00:00.522Z,99.99
2024-02-04T04:01:00.438Z,99.99
2024-02-04T04:02:00.337Z,99.99
2024-02-04T04:03:00.791Z,99.99
2024-02-04T04:04:00.427Z,99.99
2024-02-04T04:05:00.376Z,99.99
2024-02-04T04:06:00.426Z,99.99
2024-02-04T04:07:00.417Z,99.99
2024-02-04T04:08:00.503Z,99.99
2024-02-04T04:09:00.464Z,99.99
2024-02-04T04:10:00.412Z,99.99
2024-02-04T04:11:00.229Z,99.99
2024-02-04T04:12:00.260Z,99.99
2024-02-04T04:13:00.246Z,99.99
2024-02-04T04:14:00.242Z,99.99
2024-02-04T04:15:00.314Z,99.99
2024-02-04T04:16:00.334Z,99.99
2024-02-04T04:17:00.182Z,99.99
2024-02-04T04:18:00.214Z,99.99
2024-02-04T04:19:00.352Z,99.99
2024-02-04T04:20:00.298Z,99.99
2024-02-04T04:21:00.154Z,99.99
2024-02-04T04:22:00.211Z,99.99
2024-02-04T04:23:00.379Z,99.99
2024-02-04T04:24:00.180Z,99.99
2024-02-04T04:25:00.265Z,99.99
2024-02-04T04:26:00.103Z,99.99
2024-02-04T04:27:00.084Z,99.99
2024-02-04T04:28:00.190Z,99.99
2024-02-04T04:29:00.104Z,99.99
2024-02-04T04:30:00.053Z,99.99
2024-02-04T04:31:00.079Z,99.99
2024-02-04T04:32:00.044Z,99.99
2024-02-04T04:33:00.857Z,99.99
2024-02-04T04:34:00.169Z,99.99
2024-02-04T04:34:59.991Z,99.99
2024-02-04T04:35:59.988Z,99.99
2024-02-04T04:37:00.006Z,99.99
2024-02-04T04:37:59.979Z,99.99
2024-02-04T04:39:00.791Z,99.99
2024-02-04T04:40:00.019Z,99.99
2024-02-04T04:40:59.951Z,99.99
2024-02-04T04:41:59.942Z,99.99
2024-02-04T04:43:00.206Z,99.99
2024-02-04T04:43:59.904Z,99.99
2024-02-04T04:44:59.888Z,99.99
2024-02-04T04:45:59.987Z,99.99
2024-02-04T04:46:59.882Z,99.99
2024-02-04T04:47:59.936Z,99.99
2024-02-04T04:49:00.100Z,99.99
2024-02-04T04:50:00.143Z,99.99
2024-02-04T04:50:59.825Z,99.99
2024-02-04T04:51:59.864Z,99.99
2024-02-04T04:52:59.805Z,99.99
2024-02-04T04:53:59.815Z,99.99
2024-02-04T04:54:59.804Z,99.99
2024-02-04T04:55:59.792Z,99.99
2024-02-04T04:56:59.783Z,99.99
2024-02-04T04:57:59.962Z,99.99
2024-02-04T04:58:59.777Z,99.99
2024-02-04T04:59:59.748Z,99.99
2024-02-04T05:00:59.844Z,99.99
2024-02-04T05:01:59.766Z,99.99
2024-02-04T05:02:59.712Z,99.99
2024-02-04T05:03:59.843Z,99.99
2024-02-04T05:04:59.798Z,99.99
2024-02-04T05:05:59.726Z,99.99
2024-02-04T05:06:59.772Z,99.99
2024-02-04T05:07:59.791Z,99.99
2024-02-04T05:08:59.657Z,99.99
2024-02-04T05:09:59.709Z,99.99
2024-02-04T05:10:59.641Z,99.99
2024-02-04T05:11:59.653Z,99.99
2024-02-04T05:12:59.684Z,99.99
2024-02-04T05:13:59.624Z,99.99
2024-02-04T05:14:59.581Z,99.99
2024-02-04T05:16:00.869Z,99.99
2024-02-04T05:18:36.649Z,99.99
2024-02-04T05:18:42.248Z,99.99
2024-02-04T05:26:06.509Z,99.99
2024-02-04T05:26:11.807Z,99.99
2024-02-04T05:27:11.780Z,99.99
2024-02-04T05:28:11.946Z,99.99
2024-02-04T05:29:11.761Z,99.99
2024-02-04T05:30:11.791Z,99.99
2024-02-04T05:31:21.267Z,99.99
2024-02-04T05:32:11.720Z,99.99
2024-02-04T05:33:11.765Z,99.99
2024-02-04T05:34:11.838Z,99.99
2024-02-04T05:35:12.343Z,99.99
2024-02-04T05:36:11.722Z,99.99
2024-02-04T05:37:11.959Z,99.99
2024-02-04T05:38:11.690Z,99.99
2024-02-04T05:39:11.644Z,99.99
2024-02-04T05:40:11.693Z,99.99
2024-02-04T05:41:11.628Z,99.99
2024-02-04T05:42:11.649Z,99.99
2024-02-04T05:43:13.429Z,99.99
2024-02-04T05:44:11.619Z,99.99
2024-02-04T05:45:11.627Z,99.99
2024-02-04T05:46:11.617Z,99.99
2024-02-04T05:47:11.606Z,99.99
2024-02-04T05:48:11.666Z,99.99
2024-02-04T05:49:12.197Z,99.99
2024-02-04T05:50:11.778Z,99.99
2024-02-04T05:51:11.538Z,99.99
2024-02-04T05:52:11.556Z,99.99
2024-02-04T05:53:11.536Z,99.99
2024-02-04T05:54:11.514Z,99.99
2024-02-04T05:55:11.685Z,99.99
2024-02-04T05:56:11.504Z,99.99
2024-02-04T05:57:11.451Z,99.99
2024-02-04T05:58:11.490Z,99.99
2024-02-04T05:59:11.453Z,99.99
2024-02-04T06:00:11.455Z,99.99
2024-02-04T06:01:12.409Z,99.99
2024-02-04T06:02:11.455Z,99.99
2024-02-04T06:03:11.480Z,99.99
2024-02-04T06:04:11.617Z,99.99
2024-02-04T06:05:11.390Z,99.99
2024-02-04T06:06:11.655Z,99.99
2024-02-04T06:07:11.484Z,99.99
2024-02-04T06:08:11.337Z,99.99
2024-02-04T06:09:11.344Z,99.99
2024-02-04T06:10:11.449Z,99.99
2024-02-04T06:11:11.378Z,99.99
2024-02-04T06:12:11.323Z,99.99
2024-02-04T06:13:11.341Z,99.99
2024-02-04T06:14:11.351Z,99.99
2024-02-04T06:15:12.953Z,99.99
2024-02-04T06:16:11.540Z,99.99
2024-02-04T06:17:11.358Z,99.99
2024-02-04T06:18:11.370Z,99.99
2024-02-04T06:19:11.264Z,99.99
2024-02-04T06:20:11.262Z,99.99
2024-02-04T06:21:11.218Z,99.99
2024-02-04T06:22:11.554Z,99.99
2024-02-04T06:23:11.218Z,99.99
2024-02-04T06:24:11.202Z,99.99
2024-02-04T06:25:11.272Z,99.99
2024-02-04T06:26:11.184Z,99.99
2024-02-04T06:27:11.240Z,99.99
2024-02-04T06:28:11.207Z,99.99
2024-02-04T06:29:11.132Z,99.99
2024-02-04T06:30:11.356Z,99.99
2024-02-04T06:31:11.431Z,99.99
2024-02-04T06:32:11.094Z,99.99
2024-02-04T06:33:11.157Z,99.99
2024-02-04T06:34:11.180Z,99.95
2024-02-04T06:35:12.552Z,99.99
2024-02-04T06:36:11.076Z,99.99
2024-02-04T06:37:11.105Z,99.74
2024-02-04T06:38:11.270Z,99.63
2024-02-04T06:39:11.041Z,99.54
2024-02-04T06:40:11.038Z,99.43
2024-02-04T06:41:11.003Z,99.43
2024-02-04T06:42:11.212Z,99.54
2024-02-04T06:43:11.037Z,99.54
2024-02-04T06:44:10.963Z,99.54
2024-02-04T06:45:10.959Z,99.54
2024-02-04T06:46:10.992Z,99.68
2024-02-04T06:47:10.941Z,99.63
2024-02-04T06:48:11.103Z,99.63
2024-02-04T06:49:11.742Z,99.74
2024-02-04T06:50:10.930Z,99.79
2024-02-04T06:51:10.961Z,99.74
2024-02-04T06:52:10.938Z,99.63
2024-02-04T06:53:10.880Z,99.54
2024-02-04T06:54:11.797Z,99.54
2024-02-04T06:55:10.892Z,99.63
2024-02-04T06:56:10.844Z,99.63
2024-02-04T06:57:10.840Z,99.79
2024-02-04T06:58:10.891Z,99.63
2024-02-04T06:59:10.829Z,99.63
2024-02-04T07:00:10.813Z,99.68
2024-02-04T07:01:11.553Z,99.74
2024-02-04T07:02:11.481Z,99.84
2024-02-04T07:03:10.899Z,99.89
2024-02-04T07:04:10.816Z,99.74
2024-02-04T07:05:10.757Z,99.79
2024-02-04T07:06:10.829Z,99.63
2024-02-04T07:07:10.811Z,99.63
2024-02-04T07:08:10.719Z,99.74
2024-02-04T07:09:10.730Z,99.43
2024-02-04T07:10:10.841Z,99.33
2024-02-04T07:11:10.699Z,99.43
2024-02-04T07:12:10.675Z,99.43
2024-02-04T07:13:10.692Z,99.33
2024-02-04T07:14:10.673Z,99.33
2024-02-04T07:15:11.301Z,99.33
2024-02-04T07:16:10.751Z,99.33
2024-02-04T07:17:11.309Z,99.43
2024-02-04T07:18:10.683Z,99.43
2024-02-04T07:19:10.723Z,99.33
2024-02-04T07:20:11.364Z,99.33
2024-02-04T07:21:11.379Z,99.43
2024-02-04T07:22:10.606Z,99.33
2024-02-04T07:23:10.633Z,99.33
2024-02-04T07:24:10.626Z,99.22
2024-02-04T07:25:10.629Z,99.12
2024-02-04T07:26:10.560Z,99.12
2024-02-04T07:27:10.575Z,99.22
2024-02-04T07:28:10.656Z,99.33
2024-02-04T07:29:10.548Z,99.43
2024-02-04T07:30:10.538Z,99.33
2024-02-04T07:31:10.523Z,99.22
2024-02-04T07:32:10.504Z,99.33
2024-02-04T07:33:10.480Z,99.43
2024-02-04T07:34:10.577Z,99.43
2024-02-04T07:35:10.694Z,99.33
2024-02-04T07:36:10.460Z,99.12
2024-02-04T07:37:10.608Z,99.22
2024-02-04T07:38:10.413Z,99.22
2024-02-04T07:39:10.459Z,99.12
2024-02-04T07:40:10.486Z,99.22
2024-02-04T07:41:10.835Z,99.22
2024-02-04T07:42:10.405Z,99.22
2024-02-04T07:43:10.567Z,99.22
2024-02-04T07:44:10.383Z,99.22
2024-02-04T07:45:10.688Z,99.33
2024-02-04T07:46:10.392Z,99.33
2024-02-04T07:47:10.378Z,99.33
2024-02-04T07:48:10.375Z,99.22
2024-02-04T07:49:10.368Z,99.33
2024-02-04T07:50:10.457Z,99.33
2024-02-04T07:51:10.302Z,99.22
2024-02-04T07:52:10.317Z,99.33
2024-02-04T07:53:10.281Z,99.33
2024-02-04T07:54:10.292Z,99.43
2024-02-04T07:55:10.430Z,99.22
2024-02-04T07:56:10.228Z,99.12
2024-02-04T07:57:10.245Z,98.92
2024-02-04T07:58:10.383Z,98.96
2024-02-04T07:59:10.565Z,99.07
2024-02-04T08:00:10.216Z,99.17
2024-02-04T08:01:10.287Z,99.17
2024-02-04T08:02:10.240Z,99.17
2024-02-04T08:03:10.227Z,99.17
2024-02-04T08:04:10.302Z,99.07
2024-02-04T08:05:10.297Z,98.96
2024-02-04T08:06:10.160Z,99.07
2024-02-04T08:07:10.245Z,98.96
2024-02-04T08:08:10.367Z,98.96
2024-02-04T08:09:10.127Z,99.07
2024-02-04T08:10:10.190Z,99.07
2024-02-04T08:11:10.239Z,99.17
2024-02-04T08:12:10.096Z,99.07
2024-02-04T08:13:10.114Z,99.07
2024-02-04T08:14:10.068Z,99.17
2024-02-04T08:15:10.062Z,99.17
2024-02-04T08:16:10.059Z,99.07
2024-02-04T08:17:10.049Z,99.17
2024-02-04T08:18:10.049Z,99.17
2024-02-04T08:19:10.050Z,98.86
2024-02-04T08:20:10.200Z,98.86
2024-02-04T08:21:09.990Z,98.96
2024-02-04T08:22:10.035Z,98.96
2024-02-04T08:23:09.972Z,98.66
2024-02-04T08:24:09.957Z,98.51
2024-02-04T08:25:09.976Z,98.51
2024-02-04T08:26:09.945Z,98.41
2024-02-04T08:27:09.989Z,98.55
2024-02-04T08:28:09.964Z,98.35
2024-02-04T08:29:09.889Z,98.20
2024-02-04T08:30:09.935Z,98.20
2024-02-04T08:31:09.943Z,98.10
2024-02-04T08:32:09.985Z,97.99
2024-02-04T08:33:09.919Z,97.99
2024-02-04T08:34:10.704Z,97.89
2024-02-04T08:35:09.954Z,97.89
2024-02-04T08:36:09.929Z,97.79
2024-02-04T08:37:09.902Z,97.79
2024-02-04T08:38:09.836Z,97.79
2024-02-04T08:39:09.813Z,97.69
2024-02-04T08:40:09.840Z,97.89
2024-02-04T08:41:09.806Z,97.99
2024-02-04T08:42:09.807Z,98.10
2024-02-04T08:43:09.805Z,98.10
2024-02-04T08:44:13.378Z,98.20
2024-02-04T08:45:09.738Z,98.10
2024-02-04T08:46:13.821Z,98.20
2024-02-04T08:47:09.729Z,98.41
2024-02-04T08:48:09.791Z,98.30
2024-02-04T08:49:09.791Z,98.20
2024-02-04T08:50:09.823Z,97.99
2024-02-04T08:51:09.729Z,97.99
2024-02-04T08:52:09.879Z,97.89
2024-02-04T08:53:09.662Z,97.89
2024-02-04T08:54:10.330Z,97.79
2024-02-04T08:55:09.727Z,97.58
2024-02-04T08:56:09.637Z,97.48
2024-02-04T08:57:09.650Z,97.58
2024-02-04T08:58:09.731Z,97.48
2024-02-04T08:59:09.615Z,97.38
2024-02-04T09:00:09.605Z,97.33
2024-02-04T09:01:09.662Z,97.33
2024-02-04T09:02:11.415Z,97.23
2024-02-04T09:03:09.593Z,97.33
2024-02-04T09:04:09.695Z,97.13
2024-02-04T09:05:09.600Z,96.92
2024-02-04T09:06:09.559Z,96.92
2024-02-04T09:07:09.794Z,96.82
2024-02-04T09:08:09.542Z,96.72
2024-02-04T09:09:09.494Z,96.72
2024-02-04T09:10:09.677Z,96.82
2024-02-04T09:11:09.486Z,96.72
2024-02-04T09:12:10.567Z,96.51
2024-02-04T09:13:09.567Z,96.51
2024-02-04T09:14:09.499Z,96.51
2024-02-04T09:15:09.494Z,96.41
2024-02-04T09:16:10.357Z,96.20
2024-02-04T09:17:09.437Z,96.20
2024-02-04T09:18:09.479Z,95.95
2024-02-04T09:19:09.525Z,95.75
2024-02-04T09:20:09.551Z,95.75
2024-02-04T09:21:09.538Z,95.86
2024-02-04T09:22:09.585Z,95.86
2024-02-04T09:23:09.369Z,95.86
2024-02-04T09:24:09.373Z,95.75
2024-02-04T09:25:09.400Z,95.65
2024-02-04T09:26:09.514Z,95.65
2024-02-04T09:27:09.331Z,95.65
2024-02-04T09:28:09.457Z,95.65
2024-02-04T09:29:09.409Z,95.75
2024-02-04T09:30:09.283Z,95.65
2024-02-04T09:31:09.380Z,95.65
2024-02-04T09:32:09.528Z,95.54
2024-02-04T09:33:09.580Z,95.44
2024-02-04T09:34:09.356Z,95.34
2024-02-04T09:35:09.425Z,95.44
2024-02-04T09:36:09.481Z,95.34
2024-02-04T09:37:09.236Z,95.34
2024-02-04T09:38:12.405Z,95.14
2024-02-04T09:39:09.210Z,94.99
2024-02-04T09:40:09.285Z,94.89
2024-02-04T09:41:09.234Z,94.78
2024-02-04T09:42:09.193Z,94.78
2024-02-04T09:43:09.290Z,94.68
2024-02-04T09:44:09.167Z,94.78
2024-02-04T09:45:09.154Z,94.68
2024-02-04T09:46:09.317Z,94.68
2024-02-04T09:47:09.492Z,94.27
2024-02-04T09:48:10.344Z,94.27
2024-02-04T09:49:09.342Z,94.27
2024-02-04T09:50:09.264Z,94.17
2024-02-04T09:51:09.234Z,94.07
2024-02-04T09:52:09.178Z,94.17
2024-02-04T09:53:09.077Z,94.07
2024-02-04T09:54:09.058Z,94.07
2024-02-04T09:55:09.083Z,94.23
2024-02-04T09:56:09.094Z,93.96
2024-02-04T09:57:09.042Z,94.17
2024-02-04T09:58:09.109Z,94.17
2024-02-04T09:59:09.042Z,94.07
2024-02-04T10:00:09.024Z,94.17
2024-02-04T10:01:09.238Z,94.17
2024-02-04T10:02:09.105Z,94.17
2024-02-04T10:03:09.001Z,94.07
2024-02-04T10:04:09.054Z,94.07
2024-02-04T10:05:09.084Z,94.27
2024-02-04T10:06:09.436Z,94.07
2024-02-04T10:07:09.096Z,93.86
2024-02-04T10:08:08.990Z,93.96
2024-02-04T10:09:09.075Z,93.86
2024-02-04T10:10:09.142Z,93.86
2024-02-04T10:11:09.099Z,93.66
2024-02-04T10:12:08.958Z,93.55
2024-02-04T10:13:08.995Z,93.86
2024-02-04T10:14:08.819Z,93.86
2024-02-04T10:15:08.819Z,93.86
2024-02-04T10:16:08.829Z,93.96
2024-02-04T10:17:08.806Z,94.07
2024-02-04T10:18:08.961Z,94.07
2024-02-04T10:19:09.449Z,94.17
2024-02-04T10:20:08.777Z,94.27
2024-02-04T10:21:08.756Z,94.27
2024-02-04T10:22:08.886Z,94.17
2024-02-04T10:23:08.744Z,94.17
2024-02-04T10:24:08.741Z,94.27
2024-02-04T10:25:08.982Z,94.27
2024-02-04T10:26:08.770Z,94.27
2024-02-04T10:27:13.622Z,94.17
2024-02-04T10:28:08.770Z,94.27
2024-02-04T10:29:08.735Z,94.37
2024-02-04T10:30:08.650Z,94.48
2024-02-04T10:31:08.763Z,94.48
2024-02-04T10:32:08.654Z,94.37
2024-02-04T10:33:08.948Z,94.48
2024-02-04T10:34:08.759Z,94.58
2024-02-04T10:35:08.654Z,94.58
2024-02-04T10:36:08.614Z,94.48
2024-02-04T10:37:08.694Z,94.37
2024-02-04T10:38:08.619Z,94.37
2024-02-04T10:39:08.644Z,94.37
2024-02-04T10:40:08.766Z,94.37
2024-02-04T10:41:08.564Z,94.48
2024-02-04T10:42:08.577Z,94.27
2024-02-04T10:43:08.740Z,94.27
2024-02-04T10:44:08.537Z,94.48
2024-02-04T10:45:08.493Z,94.48
2024-02-04T10:46:08.611Z,94.17
2024-02-04T10:47:08.568Z,94.27
2024-02-04T10:48:08.534Z,94.27
2024-02-04T10:49:08.567Z,94.37
2024-02-04T10:50:08.498Z,94.37
2024-02-04T10:51:08.463Z,94.37
2024-02-04T10:52:08.503Z,94.27
2024-02-04T10:53:08.428Z,94.17
2024-02-04T10:54:08.420Z,94.27
2024-02-04T10:55:08.514Z,94.07
2024-02-04T10:56:08.504Z,94.07
2024-02-04T10:57:08.360Z,94.07
2024-02-04T10:58:08.524Z,94.07
2024-02-04T10:59:08.346Z,94.07
2024-02-04T11:00:08.496Z,93.96
2024-02-04T11:01:08.458Z,93.96
2024-02-04T11:02:08.368Z,93.96
2024-02-04T11:03:08.302Z,93.86
2024-02-04T11:04:08.449Z,93.86
2024-02-04T11:05:08.410Z,93.66
2024-02-04T11:06:08.438Z,93.66
2024-02-04T11:07:08.301Z,93.55
2024-02-04T11:08:08.382Z,93.55
2024-02-04T11:09:08.258Z,93.41
2024-02-04T11:10:08.261Z,93.51
2024-02-04T11:11:08.352Z,93.41
2024-02-04T11:12:08.227Z,93.41
2024-02-04T11:13:08.284Z,93.41
2024-02-04T11:14:08.194Z,93.41
2024-02-04T11:15:11.025Z,93.30
2024-02-04T11:16:08.322Z,93.41
2024-02-04T11:17:08.205Z,93.41
2024-02-04T11:18:08.285Z,93.41
2024-02-04T11:19:08.457Z,93.51
2024-02-04T11:20:08.192Z,93.51
2024-02-04T11:21:08.127Z,93.62
2024-02-04T11:22:08.221Z,93.71
2024-02-04T11:23:08.186Z,93.71
2024-02-04T11:24:08.138Z,93.92
2024-02-04T11:25:08.232Z,93.92
2024-02-04T11:26:08.081Z,94.12
2024-02-04T11:27:08.127Z,94.33
2024-02-04T11:28:08.188Z,94.33
2024-02-04T11:29:08.111Z,94.43
2024-02-04T11:30:08.123Z,94.74
2024-02-04T11:31:08.137Z,94.84
2024-02-04T11:32:08.182Z,94.95
2024-02-04T11:33:08.306Z,94.95
2024-02-04T11:34:08.228Z,95.05
2024-02-04T11:35:08.126Z,95.15
2024-02-04T11:36:08.088Z,95.15
2024-02-04T11:37:08.117Z,95.05
2024-02-04T11:38:08.921Z,95.05
2024-02-04T11:39:08.036Z,94.95
2024-02-04T11:40:08.064Z,94.95
2024-02-04T11:41:07.957Z,94.95
2024-02-04T11:42:08.252Z,94.74
2024-02-04T11:43:08.035Z,94.54
2024-02-04T11:44:08.029Z,94.23
2024-02-04T11:45:07.878Z,94.23
2024-02-04T11:46:08.134Z,94.23
2024-02-04T11:47:07.901Z,93.92
2024-02-04T11:48:08.175Z,93.82
2024-02-04T11:49:08.051Z,93.88
2024-02-04T11:50:08.169Z,93.57
2024-02-04T11:51:08.171Z,93.57
2024-02-04T11:52:07.920Z,93.67
2024-02-04T11:53:07.907Z,93.57
2024-02-04T11:54:07.939Z,93.37
2024-02-04T11:55:07.840Z,93.26
2024-02-04T11:56:07.958Z,93.16
2024-02-04T11:57:07.823Z,93.16
2024-02-04T11:58:07.890Z,93.06
2024-02-04T11:59:07.750Z,93.06
2024-02-04T12:00:07.724Z,92.96
2024-02-04T12:01:08.487Z,93.06
2024-02-04T12:02:07.844Z,93.16
2024-02-04T12:03:07.739Z,93.26
2024-02-04T12:04:07.721Z,93.16
2024-02-04T12:05:07.815Z,93.26
2024-02-04T12:06:07.960Z,93.26
2024-02-04T12:07:07.783Z,93.26
2024-02-04T12:08:07.660Z,93.30
2024-02-04T12:09:07.721Z,93.47
2024-02-04T12:10:07.737Z,93.37
2024-02-04T12:11:07.878Z,93.57
2024-02-04T12:12:07.765Z,93.47
2024-02-04T12:13:07.660Z,93.47
2024-02-04T12:14:07.968Z,93.57
2024-02-04T12:15:07.597Z,93.57
2024-02-04T12:16:07.665Z,93.57
2024-02-04T12:17:07.538Z,93.51
2024-02-04T12:18:08.438Z,93.47
2024-02-04T12:19:09.475Z,93.47
2024-02-04T12:20:07.662Z,93.47
2024-02-04T12:21:07.539Z,93.47
2024-02-04T12:22:07.554Z,93.47
2024-02-04T12:23:07.539Z,93.57
2024-02-04T12:24:07.490Z,93.67
2024-02-04T12:25:07.585Z,93.67
2024-02-04T12:26:07.528Z,93.77
2024-02-04T12:27:07.489Z,93.77
2024-02-04T12:28:07.599Z,93.77
2024-02-04T12:29:07.501Z,93.67
2024-02-04T12:30:07.462Z,93.67
2024-02-04T12:31:07.500Z,93.67
2024-02-04T12:32:07.483Z,93.47
2024-02-04T12:33:07.617Z,93.57
2024-02-04T12:34:07.552Z,93.47
2024-02-04T12:35:07.423Z,93.37
2024-02-04T12:36:07.385Z,93.26
2024-02-04T12:37:07.466Z,93.37
2024-02-04T12:38:07.375Z,93.37
2024-02-04T12:39:07.358Z,93.26
2024-02-04T12:40:07.488Z,93.26
2024-02-04T12:41:07.352Z,93.16
2024-02-04T12:42:07.412Z,93.06
2024-02-04T12:43:07.562Z,92.96
2024-02-04T12:44:07.570Z,93.06
2024-02-04T12:45:07.429Z,92.81
2024-02-04T12:46:07.282Z,92.71
2024-02-04T12:47:07.457Z,92.81
2024-02-04T12:48:07.269Z,92.81
2024-02-04T12:49:07.600Z,92.60
2024-02-04T12:50:07.328Z,92.60
2024-02-04T12:51:07.215Z,92.50
2024-02-04T12:52:07.348Z,92.50
2024-02-04T12:53:07.499Z,92.30
2024-02-04T12:54:07.254Z,92.40
2024-02-04T12:55:07.280Z,92.19
2024-02-04T12:56:07.227Z,92.10
2024-02-04T12:57:07.177Z,91.78
2024-02-04T12:58:07.303Z,91.89